sensor_id;sensor_type;location;lat;lon;timestamp;P1;durP1;ratioP1;P2;durP2;ratioP2
65077;SDS011;51672;51.230;-2.322;2023-02-11T00:03:37;8.13;;;1.60;;
65077;SDS011;51672;51.230;-2.322;2023-02-11T00:07:20;6.20;;;1.55;;
65077;SDS011;51672;51.230;-2.322;2023-02-11T00:11:02;10.02;;;1.70;;
65077;SDS011;51672;51.230;-2.322;2023-02-11T00:14:44;7.70;;;2.13;;
65077;SDS011;51672;51.230;-2.322;2023-02-11T00:18:26;4.72;;;1.95;;
65077;SDS011;51672;51.230;-2.322;2023-02-11T00:22:09;6.07;;;2.15;;
65077;SDS011;51672;51.230;-2.322;2023-02-11T00:25:51;9.52;;;2.25;;
65077;SDS011;51672;51.230;-2.322;2023-02-11T00:29:33;7.38;;;2.00;;
65077;SDS011;51672;51.230;-2.322;2023-02-11T00:33:15;7.03;;;2.20;;
65077;SDS011;51672;51.230;-2.322;2023-02-11T00:36:57;5.20;;;1.70;;
65077;SDS011;51672;51.230;-2.322;2023-02-11T00:40:39;6.27;;;1.30;;
65077;SDS011;51672;51.230;-2.322;2023-02-11T00:44:22;8.00;;;1.70;;
65077;SDS011;51672;51.230;-2.322;2023-02-11T00:48:04;5.05;;;1.77;;
65077;SDS011;51672;51.230;-2.322;2023-02-11T00:51:46;9.33;;;1.30;;
65077;SDS011;51672;51.230;-2.322;2023-02-11T00:55:28;5.70;;;1.65;;
65077;SDS011;51672;51.230;-2.322;2023-02-11T00:59:10;8.02;;;2.15;;
65077;SDS011;51672;51.230;-2.322;2023-02-11T01:02:52;5.20;;;1.80;;
65077;SDS011;51672;51.230;-2.322;2023-02-11T01:06:34;8.70;;;1.75;;
65077;SDS011;51672;51.230;-2.322;2023-02-11T01:10:16;7.28;;;1.52;;
65077;SDS011;51672;51.230;-2.322;2023-02-11T01:13:58;6.50;;;1.80;;
65077;SDS011;51672;51.230;-2.322;2023-02-11T01:17:40;8.03;;;1.50;;
65077;SDS011;51672;51.230;-2.322;2023-02-11T01:21:23;11.23;;;1.70;;
65077;SDS011;51672;51.230;-2.322;2023-02-11T01:25:06;7.75;;;1.70;;
65077;SDS011;51672;51.230;-2.322;2023-02-11T01:28:49;10.63;;;3.60;;
65077;SDS011;51672;51.230;-2.322;2023-02-11T01:32:31;7.80;;;2.28;;
65077;SDS011;51672;51.230;-2.322;2023-02-11T01:36:13;7.38;;;1.92;;
65077;SDS011;51672;51.230;-2.322;2023-02-11T01:39:55;6.18;;;1.85;;
65077;SDS011;51672;51.230;-2.322;2023-02-11T01:43:40;7.82;;;1.98;;
65077;SDS011;51672;51.230;-2.322;2023-02-11T01:47:24;6.32;;;1.40;;
65077;SDS011;51672;51.230;-2.322;2023-02-11T01:51:08;8.00;;;1.45;;
65077;SDS011;51672;51.230;-2.322;2023-02-11T01:54:59;8.13;;;1.50;;
65077;SDS011;51672;51.230;-2.322;2023-02-11T01:59:05;10.13;;;1.40;;
65077;SDS011;51672;51.230;-2.322;2023-02-11T02:03:04;4.82;;;1.17;;
65077;SDS011;51672;51.230;-2.322;2023-02-11T02:06:51;6.07;;;1.07;;
65077;SDS011;51672;51.230;-2.322;2023-02-11T02:10:46;4.35;;;0.90;;
65077;SDS011;51672;51.230;-2.322;2023-02-11T02:14:30;6.45;;;1.00;;
65077;SDS011;51672;51.230;-2.322;2023-02-11T02:26:37;5.15;;;0.90;;
65077;SDS011;51672;51.230;-2.322;2023-02-11T02:34:47;4.10;;;0.70;;
65077;SDS011;51672;51.230;-2.322;2023-02-11T02:38:37;5.38;;;1.23;;
65077;SDS011;51672;51.230;-2.322;2023-02-11T02:42:29;11.60;;;1.80;;
65077;SDS011;51672;51.230;-2.322;2023-02-11T02:46:14;6.97;;;1.60;;
65077;SDS011;51672;51.230;-2.322;2023-02-11T02:50:05;8.70;;;1.70;;
65077;SDS011;51672;51.230;-2.322;2023-02-11T02:54:33;7.53;;;2.00;;
65077;SDS011;51672;51.230;-2.322;2023-02-11T03:02:14;6.88;;;1.50;;
65077;SDS011;51672;51.230;-2.322;2023-02-11T03:06:07;5.32;;;1.50;;
65077;SDS011;51672;51.230;-2.322;2023-02-11T03:10:08;4.30;;;1.17;;
65077;SDS011;51672;51.230;-2.322;2023-02-11T03:14:00;6.23;;;0.77;;
65077;SDS011;51672;51.230;-2.322;2023-02-11T03:17:44;4.68;;;0.80;;
65077;SDS011;51672;51.230;-2.322;2023-02-11T03:21:30;3.22;;;0.90;;
65077;SDS011;51672;51.230;-2.322;2023-02-11T03:25:15;5.27;;;0.67;;
65077;SDS011;51672;51.230;-2.322;2023-02-11T03:29:00;5.93;;;0.75;;
65077;SDS011;51672;51.230;-2.322;2023-02-11T03:33:21;3.28;;;0.82;;
65077;SDS011;51672;51.230;-2.322;2023-02-11T03:37:13;4.53;;;0.75;;
65077;SDS011;51672;51.230;-2.322;2023-02-11T03:41:00;2.97;;;0.55;;
65077;SDS011;51672;51.230;-2.322;2023-02-11T03:44:46;4.43;;;0.70;;
65077;SDS011;51672;51.230;-2.322;2023-02-11T03:48:37;4.82;;;0.63;;
65077;SDS011;51672;51.230;-2.322;2023-02-11T03:52:32;4.50;;;0.70;;
65077;SDS011;51672;51.230;-2.322;2023-02-11T03:56:18;7.95;;;1.33;;
65077;SDS011;51672;51.230;-2.322;2023-02-11T04:00:04;6.15;;;0.93;;
65077;SDS011;51672;51.230;-2.322;2023-02-11T04:03:46;4.27;;;0.80;;
65077;SDS011;51672;51.230;-2.322;2023-02-11T04:07:28;4.50;;;0.75;;
65077;SDS011;51672;51.230;-2.322;2023-02-11T04:11:10;5.32;;;0.90;;
65077;SDS011;51672;51.230;-2.322;2023-02-11T04:14:52;6.25;;;1.00;;
65077;SDS011;51672;51.230;-2.322;2023-02-11T04:18:34;6.60;;;0.93;;
65077;SDS011;51672;51.230;-2.322;2023-02-11T04:22:16;4.63;;;1.42;;
65077;SDS011;51672;51.230;-2.322;2023-02-11T04:25:58;5.82;;;1.38;;
65077;SDS011;51672;51.230;-2.322;2023-02-11T04:29:40;7.57;;;1.50;;
65077;SDS011;51672;51.230;-2.322;2023-02-11T04:33:22;10.18;;;1.63;;
65077;SDS011;51672;51.230;-2.322;2023-02-11T04:37:05;6.22;;;1.70;;
65077;SDS011;51672;51.230;-2.322;2023-02-11T04:40:47;7.37;;;1.53;;
65077;SDS011;51672;51.230;-2.322;2023-02-11T04:44:29;6.00;;;1.50;;
65077;SDS011;51672;51.230;-2.322;2023-02-11T04:48:11;4.95;;;1.38;;
65077;SDS011;51672;51.230;-2.322;2023-02-11T04:51:53;8.27;;;1.58;;
65077;SDS011;51672;51.230;-2.322;2023-02-11T04:55:35;6.10;;;1.40;;
65077;SDS011;51672;51.230;-2.322;2023-02-11T04:59:17;6.88;;;1.40;;
65077;SDS011;51672;51.230;-2.322;2023-02-11T05:02:59;8.43;;;1.55;;
65077;SDS011;51672;51.230;-2.322;2023-02-11T05:06:41;7.60;;;1.20;;
65077;SDS011;51672;51.230;-2.322;2023-02-11T05:10:23;8.55;;;1.70;;
65077;SDS011;51672;51.230;-2.322;2023-02-11T05:14:05;7.15;;;1.70;;
65077;SDS011;51672;51.230;-2.322;2023-02-11T05:17:47;5.53;;;1.10;;
65077;SDS011;51672;51.230;-2.322;2023-02-11T05:21:29;6.25;;;1.23;;
65077;SDS011;51672;51.230;-2.322;2023-02-11T05:25:11;4.68;;;1.00;;
65077;SDS011;51672;51.230;-2.322;2023-02-11T05:28:53;7.35;;;1.63;;
65077;SDS011;51672;51.230;-2.322;2023-02-11T05:32:36;4.82;;;1.17;;
65077;SDS011;51672;51.230;-2.322;2023-02-11T05:36:18;5.32;;;1.40;;
65077;SDS011;51672;51.230;-2.322;2023-02-11T05:40:00;10.35;;;1.20;;
65077;SDS011;51672;51.230;-2.322;2023-02-11T05:43:42;7.27;;;1.10;;
65077;SDS011;51672;51.230;-2.322;2023-02-11T05:47:24;7.97;;;1.20;;
65077;SDS011;51672;51.230;-2.322;2023-02-11T05:51:06;4.70;;;0.80;;
65077;SDS011;51672;51.230;-2.322;2023-02-11T05:54:48;5.93;;;1.07;;
65077;SDS011;51672;51.230;-2.322;2023-02-11T05:58:30;7.57;;;1.15;;
65077;SDS011;51672;51.230;-2.322;2023-02-11T06:02:13;8.20;;;1.17;;
65077;SDS011;51672;51.230;-2.322;2023-02-11T06:05:55;6.32;;;1.40;;
65077;SDS011;51672;51.230;-2.322;2023-02-11T06:09:37;7.10;;;1.25;;
65077;SDS011;51672;51.230;-2.322;2023-02-11T06:13:19;3.88;;;1.10;;
65077;SDS011;51672;51.230;-2.322;2023-02-11T06:17:01;7.23;;;2.57;;
65077;SDS011;51672;51.230;-2.322;2023-02-11T06:20:43;5.65;;;1.40;;
65077;SDS011;51672;51.230;-2.322;2023-02-11T06:24:25;7.45;;;1.50;;
65077;SDS011;51672;51.230;-2.322;2023-02-11T06:28:27;7.30;;;1.48;;
65077;SDS011;51672;51.230;-2.322;2023-02-11T06:32:11;7.70;;;1.70;;
65077;SDS011;51672;51.230;-2.322;2023-02-11T06:36:15;7.47;;;1.40;;
65077;SDS011;51672;51.230;-2.322;2023-02-11T06:39:58;7.63;;;1.90;;
65077;SDS011;51672;51.230;-2.322;2023-02-11T06:43:41;5.87;;;1.33;;
65077;SDS011;51672;51.230;-2.322;2023-02-11T06:47:23;8.68;;;1.50;;
65077;SDS011;51672;51.230;-2.322;2023-02-11T06:51:09;5.38;;;1.63;;
65077;SDS011;51672;51.230;-2.322;2023-02-11T06:54:51;10.80;;;2.00;;
65077;SDS011;51672;51.230;-2.322;2023-02-11T06:58:34;6.40;;;1.67;;
65077;SDS011;51672;51.230;-2.322;2023-02-11T07:02:16;12.23;;;2.00;;
65077;SDS011;51672;51.230;-2.322;2023-02-11T07:06:01;9.10;;;2.10;;
65077;SDS011;51672;51.230;-2.322;2023-02-11T07:09:45;10.48;;;2.55;;
65077;SDS011;51672;51.230;-2.322;2023-02-11T07:13:27;9.20;;;2.00;;
65077;SDS011;51672;51.230;-2.322;2023-02-11T07:17:09;6.85;;;2.15;;
65077;SDS011;51672;51.230;-2.322;2023-02-11T07:20:51;7.30;;;2.40;;
65077;SDS011;51672;51.230;-2.322;2023-02-11T07:24:33;6.20;;;2.17;;
65077;SDS011;51672;51.230;-2.322;2023-02-11T07:28:15;6.15;;;2.13;;
65077;SDS011;51672;51.230;-2.322;2023-02-11T07:31:57;7.57;;;2.57;;
65077;SDS011;51672;51.230;-2.322;2023-02-11T07:35:39;8.68;;;3.05;;
65077;SDS011;51672;51.230;-2.322;2023-02-11T07:39:22;7.70;;;2.60;;
65077;SDS011;51672;51.230;-2.322;2023-02-11T07:43:07;8.88;;;2.65;;
65077;SDS011;51672;51.230;-2.322;2023-02-11T07:46:49;6.80;;;1.95;;
65077;SDS011;51672;51.230;-2.322;2023-02-11T07:50:31;7.22;;;2.40;;
65077;SDS011;51672;51.230;-2.322;2023-02-11T07:54:13;7.03;;;2.65;;
65077;SDS011;51672;51.230;-2.322;2023-02-11T07:57:56;7.60;;;2.60;;
65077;SDS011;51672;51.230;-2.322;2023-02-11T08:01:38;6.75;;;2.50;;
65077;SDS011;51672;51.230;-2.322;2023-02-11T08:05:26;6.68;;;2.65;;
65077;SDS011;51672;51.230;-2.322;2023-02-11T08:09:10;8.03;;;2.10;;
65077;SDS011;51672;51.230;-2.322;2023-02-11T08:12:55;7.38;;;2.30;;
65077;SDS011;51672;51.230;-2.322;2023-02-11T08:16:40;7.28;;;2.25;;
65077;SDS011;51672;51.230;-2.322;2023-02-11T08:20:24;6.82;;;2.25;;
65077;SDS011;51672;51.230;-2.322;2023-02-11T08:24:07;8.45;;;2.40;;
65077;SDS011;51672;51.230;-2.322;2023-02-11T08:27:56;10.48;;;2.35;;
65077;SDS011;51672;51.230;-2.322;2023-02-11T08:40:25;9.15;;;2.25;;
65077;SDS011;51672;51.230;-2.322;2023-02-11T08:44:07;8.35;;;2.85;;
65077;SDS011;51672;51.230;-2.322;2023-02-11T08:47:50;7.47;;;2.47;;
65077;SDS011;51672;51.230;-2.322;2023-02-11T08:55:22;16.55;;;6.65;;
65077;SDS011;51672;51.230;-2.322;2023-02-11T08:59:04;6.57;;;2.63;;
65077;SDS011;51672;51.230;-2.322;2023-02-11T09:02:53;8.10;;;2.70;;
65077;SDS011;51672;51.230;-2.322;2023-02-11T09:06:36;5.78;;;2.35;;
65077;SDS011;51672;51.230;-2.322;2023-02-11T09:10:19;12.75;;;2.75;;
65077;SDS011;51672;51.230;-2.322;2023-02-11T09:17:52;8.18;;;3.40;;
65077;SDS011;51672;51.230;-2.322;2023-02-11T09:21:34;7.90;;;2.95;;
65077;SDS011;51672;51.230;-2.322;2023-02-11T09:25:25;11.83;;;3.23;;
65077;SDS011;51672;51.230;-2.322;2023-02-11T09:29:07;8.27;;;2.58;;
65077;SDS011;51672;51.230;-2.322;2023-02-11T09:32:50;9.80;;;2.60;;
65077;SDS011;51672;51.230;-2.322;2023-02-11T09:36:41;6.50;;;2.65;;
65077;SDS011;51672;51.230;-2.322;2023-02-11T09:40:24;7.65;;;2.30;;
65077;SDS011;51672;51.230;-2.322;2023-02-11T09:44:07;7.28;;;2.75;;
65077;SDS011;51672;51.230;-2.322;2023-02-11T09:48:16;7.57;;;2.22;;
65077;SDS011;51672;51.230;-2.322;2023-02-11T09:52:02;9.80;;;3.20;;
65077;SDS011;51672;51.230;-2.322;2023-02-11T09:56:12;7.40;;;3.22;;
65077;SDS011;51672;51.230;-2.322;2023-02-11T09:59:56;9.63;;;2.97;;
65077;SDS011;51672;51.230;-2.322;2023-02-11T10:03:59;8.87;;;3.30;;
65077;SDS011;51672;51.230;-2.322;2023-02-11T10:12:22;10.77;;;3.75;;
65077;SDS011;51672;51.230;-2.322;2023-02-11T10:16:52;10.38;;;4.22;;
65077;SDS011;51672;51.230;-2.322;2023-02-11T10:21:11;11.88;;;4.07;;
65077;SDS011;51672;51.230;-2.322;2023-02-11T10:33:43;13.60;;;4.10;;
65077;SDS011;51672;51.230;-2.322;2023-02-11T10:37:48;8.20;;;3.30;;
65077;SDS011;51672;51.230;-2.322;2023-02-11T10:41:35;10.32;;;3.53;;
65077;SDS011;51672;51.230;-2.322;2023-02-11T10:46:05;11.37;;;4.37;;
65077;SDS011;51672;51.230;-2.322;2023-02-11T10:58:34;8.88;;;3.38;;
65077;SDS011;51672;51.230;-2.322;2023-02-11T11:02:51;9.63;;;3.40;;
65077;SDS011;51672;51.230;-2.322;2023-02-11T11:24:50;7.40;;;2.95;;
65077;SDS011;51672;51.230;-2.322;2023-02-11T11:28:42;9.17;;;3.17;;
65077;SDS011;51672;51.230;-2.322;2023-02-11T11:32:43;7.13;;;3.10;;
65077;SDS011;51672;51.230;-2.322;2023-02-11T11:44:32;13.70;;;4.07;;
65077;SDS011;51672;51.230;-2.322;2023-02-11T11:53:43;7.18;;;3.42;;
65077;SDS011;51672;51.230;-2.322;2023-02-11T11:57:56;7.53;;;3.40;;
65077;SDS011;51672;51.230;-2.322;2023-02-11T12:26:08;6.87;;;4.00;;
65077;SDS011;51672;51.230;-2.322;2023-02-11T12:43:04;10.48;;;4.50;;
65077;SDS011;51672;51.230;-2.322;2023-02-11T12:55:27;8.97;;;3.83;;
65077;SDS011;51672;51.230;-2.322;2023-02-11T13:13:25;10.05;;;3.97;;
65077;SDS011;51672;51.230;-2.322;2023-02-11T13:21:35;9.70;;;4.00;;
65077;SDS011;51672;51.230;-2.322;2023-02-11T13:26:10;9.57;;;2.92;;
65077;SDS011;51672;51.230;-2.322;2023-02-11T13:34:23;9.98;;;3.13;;
65077;SDS011;51672;51.230;-2.322;2023-02-11T13:38:57;7.53;;;2.50;;
65077;SDS011;51672;51.230;-2.322;2023-02-11T13:43:22;9.15;;;2.60;;
65077;SDS011;51672;51.230;-2.322;2023-02-11T13:47:31;8.65;;;3.10;;
65077;SDS011;51672;51.230;-2.322;2023-02-11T13:51:16;8.77;;;3.00;;
65077;SDS011;51672;51.230;-2.322;2023-02-11T13:55:45;11.75;;;3.95;;
65077;SDS011;51672;51.230;-2.322;2023-02-11T14:43:40;7.55;;;2.30;;
65077;SDS011;51672;51.230;-2.322;2023-02-11T14:51:42;6.63;;;2.03;;
65077;SDS011;51672;51.230;-2.322;2023-02-11T15:03:50;5.75;;;2.30;;
65077;SDS011;51672;51.230;-2.322;2023-02-11T15:12:50;5.35;;;2.55;;
65077;SDS011;51672;51.230;-2.322;2023-02-11T15:20:45;6.20;;;2.35;;
65077;SDS011;51672;51.230;-2.322;2023-02-11T15:28:51;6.43;;;2.50;;
65077;SDS011;51672;51.230;-2.322;2023-02-11T15:37:08;7.85;;;3.05;;
65077;SDS011;51672;51.230;-2.322;2023-02-11T15:41:31;6.35;;;2.70;;
65077;SDS011;51672;51.230;-2.322;2023-02-11T15:46:07;10.47;;;3.83;;
65077;SDS011;51672;51.230;-2.322;2023-02-11T16:03:39;6.90;;;2.60;;
65077;SDS011;51672;51.230;-2.322;2023-02-11T16:20:45;7.32;;;2.92;;
65077;SDS011;51672;51.230;-2.322;2023-02-11T16:29:43;7.87;;;3.30;;
65077;SDS011;51672;51.230;-2.322;2023-02-11T16:38:44;7.15;;;3.30;;
65077;SDS011;51672;51.230;-2.322;2023-02-11T16:47:34;3.85;;;1.00;;
65077;SDS011;51672;51.230;-2.322;2023-02-11T16:55:37;6.70;;;2.35;;
65077;SDS011;51672;51.230;-2.322;2023-02-11T17:08:22;9.25;;;2.60;;
65077;SDS011;51672;51.230;-2.322;2023-02-11T17:26:14;10.10;;;3.70;;
65077;SDS011;51672;51.230;-2.322;2023-02-11T17:29:56;8.80;;;4.03;;
65077;SDS011;51672;51.230;-2.322;2023-02-11T17:33:38;8.60;;;3.85;;
65077;SDS011;51672;51.230;-2.322;2023-02-11T17:37:21;9.93;;;3.92;;
65077;SDS011;51672;51.230;-2.322;2023-02-11T17:41:03;9.97;;;4.47;;
65077;SDS011;51672;51.230;-2.322;2023-02-11T17:44:45;10.63;;;5.00;;
65077;SDS011;51672;51.230;-2.322;2023-02-11T17:48:27;10.75;;;5.15;;
65077;SDS011;51672;51.230;-2.322;2023-02-11T17:52:09;13.23;;;5.17;;
65077;SDS011;51672;51.230;-2.322;2023-02-11T17:55:53;11.43;;;5.28;;
65077;SDS011;51672;51.230;-2.322;2023-02-11T17:59:36;11.38;;;4.97;;
65077;SDS011;51672;51.230;-2.322;2023-02-11T18:03:19;9.05;;;5.25;;
65077;SDS011;51672;51.230;-2.322;2023-02-11T18:07:01;10.95;;;4.93;;
65077;SDS011;51672;51.230;-2.322;2023-02-11T18:10:43;9.23;;;4.50;;
65077;SDS011;51672;51.230;-2.322;2023-02-11T18:14:25;13.77;;;4.60;;
65077;SDS011;51672;51.230;-2.322;2023-02-11T18:18:07;9.63;;;4.37;;
65077;SDS011;51672;51.230;-2.322;2023-02-11T18:21:49;9.93;;;4.50;;
65077;SDS011;51672;51.230;-2.322;2023-02-11T18:25:31;11.88;;;5.03;;
65077;SDS011;51672;51.230;-2.322;2023-02-11T18:29:13;12.97;;;6.50;;
65077;SDS011;51672;51.230;-2.322;2023-02-11T18:32:55;9.95;;;5.22;;
65077;SDS011;51672;51.230;-2.322;2023-02-11T18:36:37;14.70;;;6.38;;
65077;SDS011;51672;51.230;-2.322;2023-02-11T18:40:19;15.55;;;8.88;;
65077;SDS011;51672;51.230;-2.322;2023-02-11T18:44:01;15.38;;;8.00;;
65077;SDS011;51672;51.230;-2.322;2023-02-11T18:47:45;15.32;;;7.65;;
65077;SDS011;51672;51.230;-2.322;2023-02-11T18:51:27;15.98;;;8.30;;
65077;SDS011;51672;51.230;-2.322;2023-02-11T18:55:12;14.30;;;7.67;;
65077;SDS011;51672;51.230;-2.322;2023-02-11T18:58:56;13.48;;;7.18;;
65077;SDS011;51672;51.230;-2.322;2023-02-11T19:02:38;13.20;;;7.20;;
65077;SDS011;51672;51.230;-2.322;2023-02-11T19:06:22;14.33;;;7.63;;
65077;SDS011;51672;51.230;-2.322;2023-02-11T19:10:06;13.68;;;7.72;;
65077;SDS011;51672;51.230;-2.322;2023-02-11T19:13:48;12.70;;;7.10;;
65077;SDS011;51672;51.230;-2.322;2023-02-11T19:17:32;12.27;;;7.28;;
65077;SDS011;51672;51.230;-2.322;2023-02-11T19:21:14;14.57;;;7.47;;
65077;SDS011;51672;51.230;-2.322;2023-02-11T19:24:56;14.30;;;8.05;;
65077;SDS011;51672;51.230;-2.322;2023-02-11T19:28:38;14.80;;;7.97;;
65077;SDS011;51672;51.230;-2.322;2023-02-11T19:32:20;15.47;;;9.13;;
65077;SDS011;51672;51.230;-2.322;2023-02-11T19:36:05;16.77;;;10.05;;
65077;SDS011;51672;51.230;-2.322;2023-02-11T19:39:48;15.35;;;9.55;;
65077;SDS011;51672;51.230;-2.322;2023-02-11T19:43:30;16.47;;;9.00;;
65077;SDS011;51672;51.230;-2.322;2023-02-11T19:47:12;15.85;;;8.60;;
65077;SDS011;51672;51.230;-2.322;2023-02-11T19:50:54;16.15;;;8.05;;
65077;SDS011;51672;51.230;-2.322;2023-02-11T19:54:36;16.42;;;9.40;;
65077;SDS011;51672;51.230;-2.322;2023-02-11T19:58:18;13.57;;;8.23;;
65077;SDS011;51672;51.230;-2.322;2023-02-11T20:02:00;17.35;;;8.55;;
65077;SDS011;51672;51.230;-2.322;2023-02-11T20:05:42;13.35;;;8.10;;
65077;SDS011;51672;51.230;-2.322;2023-02-11T20:09:27;15.57;;;8.20;;
65077;SDS011;51672;51.230;-2.322;2023-02-11T20:13:11;17.85;;;8.90;;
65077;SDS011;51672;51.230;-2.322;2023-02-11T20:16:53;15.45;;;8.77;;
65077;SDS011;51672;51.230;-2.322;2023-02-11T20:20:36;15.70;;;8.53;;
65077;SDS011;51672;51.230;-2.322;2023-02-11T20:24:18;13.48;;;7.63;;
65077;SDS011;51672;51.230;-2.322;2023-02-11T20:28:01;17.30;;;8.30;;
65077;SDS011;51672;51.230;-2.322;2023-02-11T20:31:43;15.23;;;7.65;;
65077;SDS011;51672;51.230;-2.322;2023-02-11T20:35:25;13.23;;;7.10;;
65077;SDS011;51672;51.230;-2.322;2023-02-11T20:39:09;15.25;;;8.88;;
65077;SDS011;51672;51.230;-2.322;2023-02-11T20:42:51;13.68;;;8.20;;
65077;SDS011;51672;51.230;-2.322;2023-02-11T20:46:35;12.97;;;8.10;;
65077;SDS011;51672;51.230;-2.322;2023-02-11T20:50:20;18.23;;;8.45;;
65077;SDS011;51672;51.230;-2.322;2023-02-11T20:54:02;17.13;;;8.88;;
65077;SDS011;51672;51.230;-2.322;2023-02-11T20:57:46;15.00;;;9.43;;
65077;SDS011;51672;51.230;-2.322;2023-02-11T21:01:39;18.60;;;9.93;;
65077;SDS011;51672;51.230;-2.322;2023-02-11T21:05:23;19.77;;;12.07;;
65077;SDS011;51672;51.230;-2.322;2023-02-11T21:09:06;18.65;;;11.15;;
65077;SDS011;51672;51.230;-2.322;2023-02-11T21:12:49;16.38;;;10.32;;
65077;SDS011;51672;51.230;-2.322;2023-02-11T21:16:31;16.02;;;10.13;;
65077;SDS011;51672;51.230;-2.322;2023-02-11T21:20:13;20.92;;;10.50;;
65077;SDS011;51672;51.230;-2.322;2023-02-11T21:23:56;17.00;;;9.00;;
65077;SDS011;51672;51.230;-2.322;2023-02-11T21:27:38;19.50;;;10.27;;
65077;SDS011;51672;51.230;-2.322;2023-02-11T21:31:21;17.67;;;9.65;;
65077;SDS011;51672;51.230;-2.322;2023-02-11T21:35:08;22.10;;;10.90;;
65077;SDS011;51672;51.230;-2.322;2023-02-11T21:38:50;20.48;;;10.43;;
65077;SDS011;51672;51.230;-2.322;2023-02-11T21:42:32;17.80;;;9.57;;
65077;SDS011;51672;51.230;-2.322;2023-02-11T21:46:16;20.98;;;10.95;;
65077;SDS011;51672;51.230;-2.322;2023-02-11T21:49:58;18.73;;;10.48;;
65077;SDS011;51672;51.230;-2.322;2023-02-11T21:53:40;21.05;;;12.88;;
65077;SDS011;51672;51.230;-2.322;2023-02-11T21:57:22;22.00;;;11.38;;
65077;SDS011;51672;51.230;-2.322;2023-02-11T22:01:15;22.50;;;13.13;;
65077;SDS011;51672;51.230;-2.322;2023-02-11T22:04:59;24.30;;;12.90;;
65077;SDS011;51672;51.230;-2.322;2023-02-11T22:08:41;21.05;;;12.13;;
65077;SDS011;51672;51.230;-2.322;2023-02-11T22:12:23;21.83;;;11.57;;
65077;SDS011;51672;51.230;-2.322;2023-02-11T22:16:07;20.95;;;11.13;;
65077;SDS011;51672;51.230;-2.322;2023-02-11T22:19:53;17.95;;;10.38;;
65077;SDS011;51672;51.230;-2.322;2023-02-11T22:23:37;16.30;;;9.65;;
65077;SDS011;51672;51.230;-2.322;2023-02-11T22:27:20;16.92;;;9.52;;
65077;SDS011;51672;51.230;-2.322;2023-02-11T22:31:03;19.45;;;10.63;;
65077;SDS011;51672;51.230;-2.322;2023-02-11T22:34:45;15.85;;;9.40;;
65077;SDS011;51672;51.230;-2.322;2023-02-11T22:38:27;19.70;;;8.87;;
65077;SDS011;51672;51.230;-2.322;2023-02-11T22:42:11;17.48;;;9.40;;
65077;SDS011;51672;51.230;-2.322;2023-02-11T22:45:53;16.88;;;8.95;;
65077;SDS011;51672;51.230;-2.322;2023-02-11T22:49:37;16.97;;;9.33;;
65077;SDS011;51672;51.230;-2.322;2023-02-11T22:53:20;17.75;;;9.55;;
65077;SDS011;51672;51.230;-2.322;2023-02-11T22:57:05;15.25;;;9.77;;
65077;SDS011;51672;51.230;-2.322;2023-02-11T23:00:47;19.92;;;9.63;;
65077;SDS011;51672;51.230;-2.322;2023-02-11T23:04:29;21.23;;;9.43;;
65077;SDS011;51672;51.230;-2.322;2023-02-11T23:08:11;16.35;;;9.00;;
65077;SDS011;51672;51.230;-2.322;2023-02-11T23:11:53;18.92;;;9.68;;
65077;SDS011;51672;51.230;-2.322;2023-02-11T23:15:39;16.47;;;9.00;;
65077;SDS011;51672;51.230;-2.322;2023-02-11T23:19:22;20.17;;;10.05;;
65077;SDS011;51672;51.230;-2.322;2023-02-11T23:23:04;15.88;;;9.18;;
65077;SDS011;51672;51.230;-2.322;2023-02-11T23:26:47;19.80;;;9.10;;
65077;SDS011;51672;51.230;-2.322;2023-02-11T23:30:29;21.85;;;9.32;;
65077;SDS011;51672;51.230;-2.322;2023-02-11T23:34:12;16.83;;;8.60;;
65077;SDS011;51672;51.230;-2.322;2023-02-11T23:37:57;16.30;;;8.45;;
65077;SDS011;51672;51.230;-2.322;2023-02-11T23:41:39;14.85;;;8.32;;
65077;SDS011;51672;51.230;-2.322;2023-02-11T23:45:21;17.73;;;9.30;;
65077;SDS011;51672;51.230;-2.322;2023-02-11T23:49:03;14.68;;;8.00;;
65077;SDS011;51672;51.230;-2.322;2023-02-11T23:52:45;14.80;;;8.00;;
65077;SDS011;51672;51.230;-2.322;2023-02-11T23:56:27;17.33;;;8.98;;
